Time;durP1;ratioP1;P1;durP2;ratioP2;P2;SDS_P1;SDS_P2;PMS_P1;PMS_P2;Temp;Humidity;BMP_temperature;BMP_pressure;BME280_temperature;BME280_humidity;BME280_pressure;Samples;Min_cycle;Max_cycle;Signal;HPM_P1;HPM_P2
2021/12/29 00:00:43;;;;;;;62.00;19.95;;;;;;;-7.17;100.00;101138.28;5004519;28;20125;-66
2021/12/29 00:03:28;;;;;;;59.70;20.35;;;;;;;-7.54;100.00;101144.16;5006248;28;20049;-67
2021/12/29 00:06:13;;;;;;;58.80;19.13;;;;;;;-7.53;100.00;101156.25;4977488;28;20104;-64
2021/12/29 00:08:59;;;;;;;56.35;18.25;;;;;;;-7.62;100.00;101145.28;4990388;28;20048;-64
2021/12/29 00:11:44;;;;;;;51.22;17.15;;;;;;;-7.69;100.00;101150.75;4965522;28;20133;-63
2021/12/29 00:14:29;;;;;;;50.42;17.85;;;;;;;-7.46;100.00;101155.91;4982441;28;20363;-63
2021/12/29 00:17:14;;;;;;;57.22;18.75;;;;;;;-7.84;100.00;101146.19;5004528;28;20060;-65
2021/12/29 00:19:58;;;;;;;51.92;18.10;;;;;;;-7.75;100.00;101155.44;5005012;28;20049;-67
2021/12/29 00:22:44;;;;;;;50.63;17.42;;;;;;;-7.60;100.00;101156.56;4990622;28;20061;-66
2021/12/29 00:25:29;;;;;;;47.53;16.45;;;;;;;-7.61;100.00;101153.88;4989355;28;20052;-63
2021/12/29 00:28:15;;;;;;;40.10;14.63;;;;;;;-7.52;100.00;101159.72;5005203;28;20089;-64
2021/12/29 00:31:00;;;;;;;35.50;14.25;;;;;;;-7.47;100.00;101156.69;4987433;28;20053;-63
2021/12/29 00:34:04;;;;;;;39.75;15.75;;;;;;;-7.39;100.00;101147.84;4930304;29;20428;-64
2021/12/29 00:37:08;;;;;;;34.78;13.85;;;;;;;-7.36;100.00;101136.88;4943140;28;20090;-63
2021/12/29 00:40:13;;;;;;;37.38;14.32;;;;;;;-7.38;100.00;101156.44;4944027;28;20049;-64
2021/12/29 00:43:30;;;;;;;40.83;13.68;;;;;;;-7.72;100.00;101144.50;4867418;29;20204;-64
2021/12/29 00:46:33;;;;;;;46.33;14.43;;;;;;;-7.61;100.00;101141.00;4888146;29;20090;-65
2021/12/29 00:49:18;;;;;;;44.78;14.40;;;;;;;-7.38;100.00;101139.31;4886448;29;20109;-62
2021/12/29 00:52:06;;;;;;;33.75;13.15;;;;;;;-7.31;100.00;101144.13;4882168;29;20168;-65
2021/12/29 00:54:52;;;;;;;42.88;14.43;;;;;;;-7.25;100.00;101138.50;4880142;29;20370;-63
2021/12/29 00:57:36;;;;;;;44.70;15.80;;;;;;;-7.18;100.00;101126.19;4883396;29;20100;-64
2021/12/29 01:00:25;;;;;;;46.22;16.20;;;;;;;-6.96;100.00;101136.31;4905582;29;20527;-66
2021/12/29 01:03:11;;;;;;;36.70;13.27;;;;;;;-6.88;100.00;101138.63;4909288;29;20151;-64
2021/12/29 01:05:56;;;;;;;42.80;14.18;;;;;;;-6.82;100.00;101138.16;4922933;29;20082;-62
2021/12/29 01:08:40;;;;;;;39.85;14.68;;;;;;;-6.71;100.00;101124.34;4910475;29;20070;-65
2021/12/29 01:11:25;;;;;;;56.67;15.80;;;;;;;-6.66;100.00;101133.28;4923513;29;20435;-66
2021/12/29 01:14:10;;;;;;;75.03;16.38;;;;;;;-6.81;100.00;101127.97;4906310;29;20603;-63
2021/12/29 01:16:57;;;;;;;51.90;15.27;;;;;;;-7.05;100.00;101126.25;4908981;29;20167;-64
2021/12/29 01:19:42;;;;;;;72.07;16.55;;;;;;;-6.92;100.00;101122.84;4974044;28;20056;-64
2021/12/29 01:22:27;;;;;;;112.10;17.23;;;;;;;-6.87;100.00;101126.63;4989563;28;20591;-70
2021/12/29 01:25:11;;;;;;;74.70;14.93;;;;;;;-6.76;100.00;101123.13;4998428;28;20120;-69
2021/12/29 01:27:57;;;;;;;94.95;15.50;;;;;;;-6.96;100.00;101128.59;4985195;28;20045;-65
2021/12/29 01:30:43;;;;;;;74.03;15.82;;;;;;;-6.88;100.00;101127.44;4983132;28;20104;-65
2021/12/29 01:33:28;;;;;;;88.85;15.25;;;;;;;-6.83;100.00;101123.50;4977994;28;20188;-64
2021/12/29 01:36:12;;;;;;;66.07;14.75;;;;;;;-6.74;100.00;101127.59;4999068;28;20296;-64
2021/12/29 01:38:57;;;;;;;68.82;13.98;;;;;;;-6.66;100.00;101125.53;5004959;28;20056;-66
2021/12/29 01:41:44;;;;;;;79.80;14.10;;;;;;;-6.63;100.00;101116.34;4990363;28;20529;-63
2021/12/29 01:44:28;;;;;;;63.72;13.40;;;;;;;-6.77;100.00;101118.78;4990600;28;20099;-65
2021/12/29 01:47:26;;;;;;;46.55;13.68;;;;;;;-6.63;100.00;101125.75;5005631;28;20044;-65
2021/12/29 01:50:12;;;;;;;56.25;12.20;;;;;;;-6.62;100.00;101120.72;4990415;28;20073;-63
2021/12/29 01:53:03;;;;;;;59.83;14.05;;;;;;;-6.61;100.00;101121.63;4970804;28;20557;-69
2021/12/29 01:55:47;;;;;;;40.33;12.52;;;;;;;-6.63;100.00;101124.09;5005714;28;20631;-64
2021/12/29 01:58:32;;;;;;;40.17;13.32;;;;;;;-6.62;100.00;101114.66;4985927;28;20057;-64
2021/12/29 02:01:16;;;;;;;47.38;12.88;;;;;;;-6.57;100.00;101113.31;5017147;28;20115;-65
2021/12/29 02:04:00;;;;;;;44.53;13.05;;;;;;;-6.41;100.00;101124.75;5009972;28;20107;-64
2021/12/29 02:06:47;;;;;;;39.70;12.25;;;;;;;-6.38;100.00;101127.53;5023145;28;20492;-64
2021/12/29 02:09:32;;;;;;;45.95;14.35;;;;;;;-6.41;100.00;101129.03;4995430;28;20056;-63
2021/12/29 02:12:17;;;;;;;60.25;14.77;;;;;;;-6.70;100.00;101121.88;5022969;28;20532;-65
2021/12/29 02:15:04;;;;;;;43.42;14.25;;;;;;;-6.86;100.00;101120.69;5028298;28;20052;-63
2021/12/29 02:17:50;;;;;;;49.20;14.10;;;;;;;-6.74;100.00;101119.88;5027259;28;20188;-64
2021/12/29 02:20:35;;;;;;;46.33;14.63;;;;;;;-6.96;100.00;101119.16;4998832;28;20072;-63
2021/12/29 02:23:33;;;;;;;54.88;15.32;;;;;;;-6.91;100.00;101127.22;5015558;28;20048;-64
2021/12/29 02:26:19;;;;;;;58.47;16.10;;;;;;;-6.86;100.00;101115.53;5007092;28;20076;-63
2021/12/29 02:29:10;;;;;;;49.20;14.45;;;;;;;-6.75;100.00;101137.81;4980352;28;20049;-63
2021/12/29 02:31:55;;;;;;;44.45;14.48;;;;;;;-6.87;100.00;101121.50;5010356;28;20049;-63
2021/12/29 02:34:40;;;;;;;45.17;15.02;;;;;;;-6.81;100.00;101135.69;5012198;28;20106;-67
2021/12/29 02:37:24;;;;;;;47.72;14.70;;;;;;;-6.81;100.00;101132.25;5028460;28;20164;-65
2021/12/29 02:40:10;;;;;;;49.30;15.55;;;;;;;-6.62;100.00;101127.53;5011639;28;20549;-63
2021/12/29 02:42:55;;;;;;;46.30;15.70;;;;;;;-6.65;100.00;101132.50;5013951;28;20365;-64
2021/12/29 02:45:40;;;;;;;40.38;14.52;;;;;;;-6.57;100.00;101126.19;5028511;28;20195;-62
2021/12/29 02:48:28;;;;;;;41.88;15.23;;;;;;;-6.52;100.00;101124.81;5000568;28;20148;-62
2021/12/29 02:51:13;;;;;;;49.58;14.77;;;;;;;-6.93;100.00;101121.06;5028568;28;20047;-62
2021/12/29 02:53:58;;;;;;;;;;;;;;;-6.95;100.00;101118.38;5025571;28;20088;-62
2021/12/29 02:56:48;;;;;;;46.55;15.18;;;;;;;-6.87;100.00;101130.13;5006620;28;19979;-64
2021/12/29 02:59:33;;;;;;;41.22;13.45;;;;;;;-6.74;100.00;101129.28;5025342;28;20088;-62
2021/12/29 03:02:18;;;;;;;44.05;15.10;;;;;;;-6.53;100.00;101123.91;5027497;28;20517;-63
2021/12/29 03:05:04;;;;;;;43.00;15.43;;;;;;;-6.46;100.00;101123.53;5022214;28;20051;-62
2021/12/29 03:07:50;;;;;;;40.30;14.27;;;;;;;-6.59;100.00;101115.78;4997001;28;20096;-65
2021/12/29 03:10:38;;;;;;;47.72;14.45;;;;;;;-6.81;100.00;101119.34;4983708;28;20191;-61
2021/12/29 03:13:30;;;;;;;48.15;14.90;;;;;;;-6.78;100.00;101106.66;5012644;28;20240;-61
2021/12/29 03:16:15;;;;;;;43.00;14.23;;;;;;;-6.60;100.00;101101.06;5027043;28;20060;-63
2021/12/29 03:19:02;;;;;;;46.92;14.30;;;;;;;-6.52;100.00;101107.63;5027506;28;20049;-60
2021/12/29 03:21:47;;;;;;;43.72;15.30;;;;;;;-6.61;100.00;101106.16;5009033;28;20183;-61
2021/12/29 03:24:32;;;;;;;65.05;14.77;;;;;;;-6.91;100.00;101114.31;5025540;28;20414;-62
2021/12/29 03:27:16;;;;;;;;;;;;;;;-6.85;100.00;101113.06;5025272;28;20044;-62
2021/12/29 03:30:01;;;;;;;45.00;14.40;;;;;;;-6.91;100.00;101115.25;5003565;28;20050;-58
2021/12/29 03:32:52;;;;;;;47.22;14.57;;;;;;;-6.82;100.00;101108.13;5020729;28;20052;-65
2021/12/29 03:35:54;;;;;;;49.15;14.38;;;;;;;-6.76;100.00;101117.97;5025182;28;20056;-65
2021/12/29 03:38:41;;;;;;;38.95;13.27;;;;;;;-6.89;100.00;101108.50;5003688;28;20060;-65
2021/12/29 03:41:26;;;;;;;35.47;12.05;;;;;;;-6.79;100.00;101112.59;5026707;28;20120;-64
2021/12/29 03:44:11;;;;;;;40.78;12.88;;;;;;;-6.78;100.00;101114.38;4996165;28;20048;-66
2021/12/29 03:46:56;;;;;;;38.08;12.98;;;;;;;-7.21;100.00;101118.22;5026973;28;20572;-65
2021/12/29 03:49:41;;;;;;;33.13;12.55;;;;;;;-7.27;100.00;101091.16;5025916;28;20092;-66
2021/12/29 03:52:25;;;;;;;34.00;11.60;;;;;;;-7.14;100.00;101098.94;5013371;28;20099;-66
2021/12/29 03:55:11;;;;;;;40.65;13.07;;;;;;;-7.00;100.00;101108.53;5027008;28;20548;-70
2021/12/29 03:57:56;;;;;;;39.70;12.40;;;;;;;-6.84;100.00;101108.81;4993810;28;20052;-69
2021/12/29 04:00:41;;;;;;;41.22;12.25;;;;;;;-6.87;100.00;101101.78;5006154;28;20680;-70
2021/12/29 04:03:26;;;;;;;;;;;;;;;-6.71;100.00;101104.63;4976563;28;20104;-74
2021/12/29 04:06:18;;;;;;;36.55;12.38;;;;;;;-6.84;100.00;101094.22;4991285;28;19976;-68
2021/12/29 04:09:05;;;;;;;38.33;12.02;;;;;;;-6.77;100.00;101093.00;5005317;28;20133;-66
2021/12/29 04:11:50;;;;;;;43.65;13.02;;;;;;;-6.78;100.00;101104.97;4991156;28;20111;-66
2021/12/29 04:14:35;;;;;;;48.40;13.10;;;;;;;-6.89;100.00;101097.31;4963458;28;20100;-64
2021/12/29 04:17:25;;;;;;;;;;;;;;;-6.85;100.00;101104.47;5004195;28;20140;-72
2021/12/29 04:23:28;;;;;;;42.85;12.60;;;;;;;-6.91;100.00;101101.44;4991901;28;20052;-64
2021/12/29 04:26:13;;;;;;;36.08;12.00;;;;;;;-6.90;100.00;101105.81;5006850;28;20094;-69
2021/12/29 04:28:58;;;;;;;44.45;14.27;;;;;;;-7.17;100.00;101099.63;4992662;28;20048;-66
2021/12/29 04:31:43;;;;;;;35.75;12.02;;;;;;;-7.17;100.00;101090.97;4989191;28;20052;-67
2021/12/29 04:34:28;;;;;;;36.05;12.75;;;;;;;-7.19;100.00;101070.28;4989503;28;20048;-66
2021/12/29 04:37:13;;;;;;;35.90;13.15;;;;;;;-7.17;100.00;101089.31;4978108;28;20173;-65
2021/12/29 04:39:57;;;;;;;37.50;13.95;;;;;;;-7.03;100.00;101082.56;4990818;28;20068;-66
2021/12/29 04:42:42;;;;;;;34.70;12.48;;;;;;;-6.88;100.00;101076.75;4988211;28;20053;-65
2021/12/29 04:45:27;;;;;;;34.38;13.45;;;;;;;-6.80;100.00;101077.31;4964060;28;20146;-69
2021/12/29 04:48:14;;;;;;;39.47;13.32;;;;;;;-7.02;100.00;101061.13;4981682;28;20092;-67
2021/12/29 04:51:11;;;;;;;33.15;13.32;;;;;;;-6.76;100.00;101081.88;5004322;28;20048;-66
2021/12/29 04:53:56;;;;;;;33.45;13.02;;;;;;;-6.88;100.00;101074.19;4995878;28;20100;-66
2021/12/29 04:56:40;;;;;;;39.25;13.55;;;;;;;-6.74;100.00;101081.19;4990883;28;20406;-70
2021/12/29 04:59:27;;;;;;;38.70;12.40;;;;;;;-6.80;100.00;101085.03;4998310;28;20119;-66
2021/12/29 05:02:12;;;;;;;41.17;12.93;;;;;;;-6.76;100.00;101085.34;5008130;28;20103;-66
2021/12/29 05:05:07;;;;;;;37.53;13.32;;;;;;;-6.78;100.00;101086.03;5011180;28;20083;-65
2021/12/29 05:11:05;;;;;;;39.45;12.65;;;;;;;-6.77;100.00;101085.25;5005763;28;20103;-65
2021/12/29 05:13:50;;;;;;;36.22;12.27;;;;;;;-7.08;100.00;101091.66;4997308;28;20099;-64
2021/12/29 05:16:35;;;;;;;31.10;11.52;;;;;;;-6.84;100.00;101096.81;5010141;28;20052;-65
2021/12/29 05:19:20;;;;;;;34.28;11.88;;;;;;;-6.80;100.00;101085.91;4994211;28;20147;-66
2021/12/29 05:22:05;;;;;;;33.58;11.43;;;;;;;-6.91;100.00;101075.66;5024171;28;20060;-65
2021/12/29 05:24:50;;;;;;;38.70;12.25;;;;;;;-6.92;100.00;101092.81;5012129;28;20568;-67
2021/12/29 05:27:35;;;;;;;32.67;12.38;;;;;;;-6.84;100.00;101090.78;5019579;28;20056;-64
2021/12/29 05:30:21;;;;;;;55.67;15.77;;;;;;;-6.78;100.00;101089.50;5010785;28;20076;-66
2021/12/29 05:33:06;;;;;;;48.78;16.08;;;;;;;-6.61;100.00;101093.25;5025505;28;20187;-67
2021/12/29 05:35:51;;;;;;;54.72;16.50;;;;;;;-6.50;100.00;101088.00;5010227;28;20528;-65
2021/12/29 05:38:36;;;;;;;59.78;17.42;;;;;;;-6.43;100.00;101079.91;5022301;28;20087;-65
2021/12/29 05:41:21;;;;;;;62.90;18.15;;;;;;;-6.39;100.00;101074.16;5017640;28;20080;-64
2021/12/29 05:44:06;;;;;;;;;;;;;;;-6.40;100.00;101071.47;5007987;28;20188;-63
2021/12/29 05:46:50;;;;;;;57.92;17.35;;;;;;;-6.56;100.00;101064.38;5027045;28;19928;-62
2021/12/29 05:49:35;;;;;;;56.28;16.10;;;;;;;-6.58;100.00;101065.97;4985740;28;20059;-63
2021/12/29 05:52:23;;;;;;;62.30;18.67;;;;;;;-6.56;100.00;101068.66;5013392;28;20379;-64
2021/12/29 05:55:09;;;;;;;58.05;17.55;;;;;;;-6.60;100.00;101071.81;4999477;28;20426;-66
2021/12/29 05:57:55;;;;;;;54.03;16.23;;;;;;;-6.65;100.00;101079.22;5026388;28;20099;-64
2021/12/29 06:00:41;;;;;;;49.63;15.68;;;;;;;-6.77;100.00;101080.09;5000080;28;20437;-67
2021/12/29 06:03:26;;;;;;;64.38;16.85;;;;;;;-6.87;100.00;101096.63;4985830;28;20106;-69
2021/12/29 06:06:11;;;;;;;53.30;15.75;;;;;;;-7.02;100.00;101090.41;5029807;28;20567;-72
2021/12/29 06:08:57;;;;;;;56.90;17.35;;;;;;;-7.06;100.00;101079.75;5028136;28;20048;-70
2021/12/29 06:11:42;;;;;;;60.40;17.35;;;;;;;-6.97;100.00;101095.88;5028061;28;20115;-68
2021/12/29 06:14:27;;;;;;;;;;;;;;;-6.89;100.00;101100.75;4999302;28;20201;-68
2021/12/29 06:17:12;;;;;;;70.63;18.63;;;;;;;-6.90;100.00;101093.81;5012107;28;20328;-67
2021/12/29 06:19:57;;;;;;;75.70;18.63;;;;;;;-6.98;100.00;101094.97;5000017;28;20504;-65
2021/12/29 06:22:43;;;;;;;75.80;18.05;;;;;;;-7.07;100.00;101094.34;5028540;28;20068;-66
2021/12/29 06:25:29;;;;;;;;;;;;;;;-6.99;100.00;101089.72;5001156;28;20060;-73
2021/12/29 06:28:14;;;;;;;71.53;18.90;;;;;;;-6.96;100.00;101074.47;5001518;28;19970;-65
2021/12/29 06:30:59;;;;;;;71.47;18.35;;;;;;;-6.95;100.00;101083.97;5004833;28;20114;-67
2021/12/29 06:33:45;;;;;;;75.45;20.23;;;;;;;-6.91;100.00;101079.16;5028850;28;20080;-65
2021/12/29 06:36:30;;;;;;;73.75;19.90;;;;;;;-6.76;100.00;101099.94;5027870;28;20944;-66
2021/12/29 06:39:15;;;;;;;67.25;18.45;;;;;;;-6.99;100.00;101092.28;5013326;28;20068;-65
2021/12/29 06:42:00;;;;;;;75.22;20.80;;;;;;;-6.82;100.00;101097.81;5028311;28;20195;-65
2021/12/29 06:44:47;;;;;;;74.15;19.42;;;;;;;-6.70;100.00;101100.34;5014093;28;20057;-65
2021/12/29 06:47:33;;;;;;;64.90;19.70;;;;;;;-6.73;100.00;101103.59;5009400;28;20068;-64
2021/12/29 06:50:17;;;;;;;62.00;19.50;;;;;;;-6.88;100.00;101093.94;5011236;28;20069;-65
2021/12/29 06:53:02;;;;;;;68.80;19.92;;;;;;;-6.87;100.00;101099.19;5013984;28;20085;-67
2021/12/29 06:55:50;;;;;;;76.35;20.15;;;;;;;-6.65;100.00;101101.56;5011887;28;20594;-66
2021/12/29 06:58:35;;;;;;;63.22;19.98;;;;;;;-6.57;100.00;101096.13;5012571;28;20068;-63
2021/12/29 07:01:20;;;;;;;70.18;20.42;;;;;;;-6.43;100.00;101087.66;5028685;28;20053;-64
2021/12/29 07:04:04;;;;;;;75.30;21.35;;;;;;;-6.52;100.00;101094.75;5011584;28;20136;-68
2021/12/29 07:06:50;;;;;;;;;;;;;;;-6.51;100.00;101093.97;5028809;28;20560;-66
2021/12/29 07:09:35;;;;;;;67.28;20.85;;;;;;;-6.48;100.00;101089.00;5010669;28;19931;-67
2021/12/29 07:12:20;;;;;;;74.93;20.23;;;;;;;-6.45;100.00;101083.19;5026908;28;20048;-66
2021/12/29 07:15:05;;;;;;;74.38;22.73;;;;;;;-6.51;100.00;101080.16;5012748;28;20051;-66
2021/12/29 07:17:51;;;;;;;77.75;21.90;;;;;;;-6.44;100.00;101077.22;5006849;28;20052;-65
2021/12/29 07:20:38;;;;;;;79.07;22.35;;;;;;;-6.32;100.00;101091.84;5013220;28;20129;-66
2021/12/29 07:23:23;;;;;;;78.88;22.92;;;;;;;-6.22;100.00;101091.66;5011006;28;20529;-70
2021/12/29 07:26:08;;;;;;;76.28;21.38;;;;;;;-6.31;100.00;101083.31;5012945;28;20060;-64
2021/12/29 07:28:54;;;;;;;77.50;22.38;;;;;;;-6.18;100.00;101085.00;5025925;28;20056;-66
2021/12/29 07:31:38;;;;;;;;;;;;;;;-6.04;100.00;101082.56;5008714;28;20453;-65
2021/12/29 07:34:24;;;;;;;82.50;23.38;;;;;;;-6.15;100.00;101056.81;5027989;28;20094;-67
2021/12/29 07:37:09;;;;;;;87.88;23.67;;;;;;;-6.15;100.00;101067.13;4989856;28;20106;-65
2021/12/29 07:39:54;;;;;;;87.47;24.13;;;;;;;-5.96;100.00;101073.63;5014673;28;20861;-67
2021/12/29 07:42:40;;;;;;;83.10;23.70;;;;;;;-5.97;100.00;101076.09;4996092;28;20048;-67
2021/12/29 07:45:26;;;;;;;90.00;23.13;;;;;;;-5.86;100.00;101069.91;4998273;28;20531;-64
2021/12/29 07:48:11;;;;;;;77.40;22.48;;;;;;;-5.82;100.00;101070.22;5009917;28;20056;-68
2021/12/29 07:50:59;;;;;;;79.30;23.55;;;;;;;-5.66;100.00;101075.56;5012322;28;20064;-66
2021/12/29 07:53:43;;;;;;;83.38;23.48;;;;;;;-5.56;100.00;101074.47;5012665;28;20051;-63
2021/12/29 07:56:28;;;;;;;88.22;24.02;;;;;;;-5.48;100.00;101062.91;5008656;28;20048;-68
2021/12/29 07:59:14;;;;;;;77.32;25.08;;;;;;;-5.26;100.00;101068.66;4985480;28;20058;-66
2021/12/29 08:01:58;;;;;;;84.43;25.15;;;;;;;-5.27;100.00;101060.00;5001135;28;20053;-64
2021/12/29 08:04:45;;;;;;;85.40;25.38;;;;;;;-5.15;100.00;101068.50;5006278;28;20045;-65
2021/12/29 08:07:30;;;;;;;87.38;25.30;;;;;;;-5.09;100.00;101068.00;5006928;28;20196;-67
2021/12/29 08:10:15;;;;;;;87.72;24.85;;;;;;;-5.15;100.00;101071.09;5003070;28;20422;-67
2021/12/29 08:13:03;;;;;;;91.68;24.33;;;;;;;-5.23;100.00;101061.97;5006821;28;20080;-65
2021/12/29 08:15:48;;;;;;;93.25;26.00;;;;;;;-5.22;100.00;101061.16;4996981;28;20104;-63
2021/12/29 08:18:33;;;;;;;89.00;25.13;;;;;;;-5.14;100.00;101059.06;4991771;28;20519;-68
2021/12/29 08:21:18;;;;;;;91.47;23.98;;;;;;;-5.14;100.00;101052.19;5004361;28;20056;-65
2021/12/29 08:24:03;;;;;;;82.03;24.42;;;;;;;-5.24;100.00;101055.03;4991632;28;20080;-65
2021/12/29 08:26:48;;;;;;;80.35;23.10;;;;;;;-5.12;100.00;101052.28;5003871;28;20148;-66
2021/12/29 08:29:33;;;;;;;93.35;23.55;;;;;;;-5.24;100.00;101046.38;5006795;28;20052;-67
2021/12/29 08:32:17;;;;;;;87.32;23.00;;;;;;;-5.18;100.00;101049.34;5006157;28;20200;-66
2021/12/29 08:35:04;;;;;;;90.28;23.20;;;;;;;-5.24;100.00;101043.78;4998070;28;20056;-64
2021/12/29 08:37:50;;;;;;;81.80;23.90;;;;;;;-5.21;100.00;101036.22;4984953;28;20421;-66
2021/12/29 08:40:35;;;;;;;84.80;23.05;;;;;;;-5.22;100.00;101029.28;5003755;28;20048;-66
2021/12/29 08:43:20;;;;;;;70.30;21.38;;;;;;;-5.26;100.00;101027.31;5007013;28;20099;-66
2021/12/29 08:46:05;;;;;;;79.10;22.65;;;;;;;-5.32;100.00;101029.50;4997878;28;20045;-67
2021/12/29 08:48:50;;;;;;;87.15;22.95;;;;;;;-5.48;100.00;101031.91;5004132;28;20123;-66
2021/12/29 08:51:35;;;;;;;76.45;22.75;;;;;;;-5.53;100.00;101010.94;5005578;28;20080;-65
2021/12/29 08:54:20;;;;;;;76.55;21.67;;;;;;;-5.51;100.00;101019.69;4989294;28;20053;-69
2021/12/29 08:57:06;;;;;;;79.00;23.08;;;;;;;-5.41;100.00;101016.00;4990623;28;20210;-67
2021/12/29 08:59:51;;;;;;;66.18;21.08;;;;;;;-5.36;100.00;101024.94;4989766;28;20146;-67
2021/12/29 09:02:35;;;;;;;81.40;22.95;;;;;;;-5.40;100.00;101025.53;4990457;28;20053;-67
2021/12/29 09:05:21;;;;;;;78.47;22.15;;;;;;;-5.46;100.00;101026.03;4984953;28;20418;-65
2021/12/29 09:08:06;;;;;;;66.20;20.77;;;;;;;-5.66;100.00;101018.72;5004769;28;20136;-68
2021/12/29 09:10:53;;;;;;;65.85;21.85;;;;;;;-5.75;100.00;101015.56;5003764;28;20057;-65
2021/12/29 09:13:38;;;;;;;69.90;19.85;;;;;;;-5.68;100.00;101010.00;5001193;28;20445;-65
2021/12/29 09:16:24;;;;;;;65.20;19.35;;;;;;;-5.70;100.00;100997.81;4991331;28;20521;-65
2021/12/29 09:19:13;;;;;;;73.03;20.85;;;;;;;-5.60;100.00;101007.91;4991340;28;20112;-66
2021/12/29 09:21:58;;;;;;;70.03;21.17;;;;;;;-5.41;100.00;101006.53;5007313;28;20075;-68
2021/12/29 09:24:45;;;;;;;;;;;;;;;-5.34;100.00;101000.97;5011160;28;20040;-65
2021/12/29 09:27:30;;;;;;;59.97;18.52;;;;;;;-5.50;100.00;101002.53;5008971;28;19927;-66
2021/12/29 09:30:23;;;;;;;56.58;19.08;;;;;;;-5.35;100.00;100998.28;4996539;28;20065;-66
2021/12/29 09:33:09;;;;;;;55.92;18.55;;;;;;;-5.20;100.00;100988.88;4984947;28;20053;-65
2021/12/29 09:36:02;;;;;;;59.00;18.08;;;;;;;-4.64;100.00;100990.59;5010290;28;20053;-64
2021/12/29 09:38:47;;;;;;;62.55;19.25;;;;;;;-3.75;100.00;100986.31;5012156;28;20067;-67
2021/12/29 09:41:32;;;;;;;;;;;;;;;-2.67;100.00;100980.91;5010734;28;20544;-65
2021/12/29 09:44:17;;;;;;;65.47;19.90;;;;;;;-2.13;98.53;100979.38;4992541;28;19940;-64
2021/12/29 09:47:06;;;;;;;62.15;20.23;;;;;;;-1.10;92.27;100977.41;4989914;28;20143;-64
2021/12/29 09:49:52;;;;;;;59.90;20.17;;;;;;;-1.26;86.21;100973.19;5010614;28;20050;-69
2021/12/29 09:52:38;;;;;;;64.85;22.20;;;;;;;-1.12;82.45;100976.41;5013130;28;20083;-66
2021/12/29 09:55:25;;;;;;;68.40;22.58;;;;;;;-0.43;77.11;100976.94;5009478;28;20048;-65
2021/12/29 09:58:16;;;;;;;68.15;23.38;;;;;;;0.60;72.49;100966.38;4997527;28;20576;-71
2021/12/29 10:01:05;;;;;;;66.20;23.08;;;;;;;1.36;64.69;100957.91;4984900;28;20415;-68
2021/12/29 10:03:50;;;;;;;57.95;22.38;;;;;;;1.71;59.70;100952.19;5011131;28;20049;-66
2021/12/29 10:06:35;;;;;;;64.72;24.20;;;;;;;2.29;58.21;100953.25;5011642;28;20207;-69
2021/12/29 10:09:21;;;;;;;62.70;22.50;;;;;;;3.01;53.78;100945.88;4963629;28;20057;-65
2021/12/29 10:12:10;;;;;;;68.28;23.60;;;;;;;3.59;47.94;100951.88;5010387;28;20076;-65
2021/12/29 10:14:58;;;;;;;60.15;23.77;;;;;;;3.91;45.97;100934.34;5010860;28;20044;-69
2021/12/29 10:17:43;;;;;;;65.50;25.70;;;;;;;4.09;42.31;100940.94;4979234;28;20127;-67
2021/12/29 10:20:28;;;;;;;66.22;25.27;;;;;;;3.68;42.50;100939.00;5008551;28;20056;-68
2021/12/29 10:23:22;;;;;;;68.20;25.70;;;;;;;3.76;40.80;100934.84;4995959;28;20195;-67
2021/12/29 10:26:19;;;;;;;64.10;26.40;;;;;;;3.88;41.29;100929.91;4995232;28;20048;-70
2021/12/29 10:29:11;;;;;;;63.78;26.02;;;;;;;3.74;40.81;100938.28;4991945;28;20057;-63
2021/12/29 10:32:02;;;;;;;67.28;26.10;;;;;;;3.28;41.30;100923.06;4996539;28;20417;-65
2021/12/29 10:34:51;;;;;;;60.22;24.40;;;;;;;3.21;41.78;100920.25;4976798;28;20052;-66
2021/12/29 10:37:37;;;;;;;69.57;26.10;;;;;;;2.50;45.18;100912.91;5008856;28;20088;-64
2021/12/29 10:40:29;;;;;;;61.97;25.05;;;;;;;2.98;44.47;100924.84;5007496;28;20080;-69
2021/12/29 10:43:17;;;;;;;68.80;26.08;;;;;;;3.15;44.35;100917.44;4972936;28;20188;-66
2021/12/29 10:46:02;;;;;;;66.28;26.88;;;;;;;3.53;43.57;100920.25;4974589;28;20053;-65
2021/12/29 10:48:52;;;;;;;72.45;26.15;;;;;;;3.79;40.05;100913.03;4978349;28;20104;-65
2021/12/29 10:51:47;;;;;;;66.57;26.25;;;;;;;3.88;39.19;100906.28;4975871;28;20506;-64
2021/12/29 10:54:33;;;;;;;67.40;26.23;;;;;;;4.05;39.66;100904.09;4989333;28;20045;-64
2021/12/29 10:57:18;;;;;;;64.65;24.83;;;;;;;4.41;37.94;100903.22;4977571;28;20056;-64
2021/12/29 11:00:08;;;;;;;65.15;26.38;;;;;;;4.45;37.08;100898.91;5018809;28;20602;-65
2021/12/29 11:02:57;;;;;;;66.80;27.48;;;;;;;4.40;37.11;100887.41;5012213;28;20048;-67
2021/12/29 11:05:48;;;;;;;65.70;26.65;;;;;;;4.28;36.57;100881.91;4998048;28;20048;-68
2021/12/29 11:08:51;;;;;;;69.82;26.73;;;;;;;4.29;37.13;100878.41;4998385;28;20075;-68
2021/12/29 11:11:44;;;;;;;64.95;25.48;;;;;;;4.12;36.77;100882.41;4984138;28;20060;-68
2021/12/29 11:14:31;;;;;;;66.10;26.33;;;;;;;3.91;37.76;100871.38;5026707;28;20505;-66
2021/12/29 11:17:22;;;;;;;73.88;29.70;;;;;;;3.62;37.96;100875.03;5000049;28;20544;-64
2021/12/29 11:20:08;;;;;;;82.40;31.75;;;;;;;2.66;39.98;100873.28;4998400;28;20053;-65
2021/12/29 11:23:15;;;;;;;80.25;31.95;;;;;;;2.62;40.93;100870.53;5009649;28;20067;-64
2021/12/29 11:26:11;;;;;;;74.97;29.65;;;;;;;2.08;41.32;100847.94;5012926;28;20056;-69
2021/12/29 11:29:10;;;;;;;71.70;29.00;;;;;;;2.23;43.19;100857.16;5012754;28;20084;-62
2021/12/29 11:32:07;;;;;;;68.53;28.00;;;;;;;1.68;45.79;100858.88;4998647;28;20421;-65
2021/12/29 11:35:20;;;;;;;65.68;27.40;;;;;;;1.52;46.16;100853.97;4975053;28;20053;-68
2021/12/29 11:38:05;;;;;;;63.00;27.15;;;;;;;1.44;46.64;100852.84;5026390;28;20060;-68
2021/12/29 11:40:53;;;;;;;61.90;24.65;;;;;;;1.33;46.43;100858.53;5014949;28;20131;-66
2021/12/29 11:43:39;;;;;;;65.70;24.92;;;;;;;1.08;47.30;100851.59;5020957;28;20078;-66
2021/12/29 11:46:24;;;;;;;65.20;26.02;;;;;;;0.08;49.21;100853.06;5010002;28;20051;-67
2021/12/29 11:49:11;;;;;;;;;;;;;;;-0.38;52.27;100851.25;4998421;28;20048;-66
2021/12/29 11:52:03;;;;;;;65.35;25.38;;;;;;;-0.86;57.06;100857.00;5013608;28;19932;-64
2021/12/29 11:54:52;;;;;;;60.00;24.05;;;;;;;-1.38;60.33;100844.31;4996178;28;20128;-73
2021/12/29 11:57:39;;;;;;;61.10;24.20;;;;;;;-1.57;63.04;100853.00;5009305;28;20479;-65
2021/12/29 12:00:28;;;;;;;55.20;22.15;;;;;;;-1.84;64.88;100840.44;5011132;28;20067;-65
2021/12/29 12:03:16;;;;;;;57.92;21.50;;;;;;;-2.22;67.95;100843.00;4997370;28;20067;-68
2021/12/29 12:06:00;;;;;;;56.97;21.88;;;;;;;-2.49;70.52;100839.94;5011131;28;20099;-65
2021/12/29 12:08:47;;;;;;;59.78;22.52;;;;;;;-2.75;72.69;100843.00;4995926;28;20429;-72
2021/12/29 12:11:33;;;;;;;52.00;20.33;;;;;;;-3.05;74.69;100828.47;5009789;28;20087;-65
2021/12/29 12:14:26;;;;;;;48.22;19.48;;;;;;;-3.20;77.39;100835.50;4995404;28;20064;-60
2021/12/29 12:17:19;;;;;;;49.28;20.33;;;;;;;-3.57;79.94;100836.13;5011909;28;20520;-60
2021/12/29 12:20:15;;;;;;;48.45;19.20;;;;;;;-3.81;81.52;100824.47;5026119;28;20370;-62
2021/12/29 12:23:00;;;;;;;48.00;18.52;;;;;;;-3.96;83.91;100826.25;4978188;28;20156;-64
2021/12/29 12:25:45;;;;;;;47.90;18.75;;;;;;;-4.13;85.03;100825.31;4999012;28;20123;-57
2021/12/29 12:28:42;;;;;;;46.25;18.48;;;;;;;-4.23;86.13;100828.22;5026940;28;20648;-65
2021/12/29 12:31:32;;;;;;;45.15;17.35;;;;;;;-4.29;87.63;100830.47;5024478;28;20401;-67
2021/12/29 12:34:22;;;;;;;45.13;17.27;;;;;;;-4.37;88.74;100829.16;5011051;28;20179;-59
2021/12/29 12:37:34;;;;;;;46.80;18.00;;;;;;;-4.35;89.83;100827.56;4998144;28;20424;-60
2021/12/29 12:40:24;;;;;;;43.55;17.55;;;;;;;-4.54;90.27;100829.91;5025632;28;20049;-63
2021/12/29 12:43:16;;;;;;;39.58;16.08;;;;;;;-4.77;91.19;100830.31;5021828;28;20052;-64